sensor_id;sensor_type;location;lat;lon;timestamp;temperature;humidity
22827;DHT22;11580;52.562;13.418;2023-06-14T00:02:20;17.00;25.20
22827;DHT22;11580;52.562;13.418;2023-06-14T00:04:47;16.90;25.20
22827;DHT22;11580;52.562;13.418;2023-06-14T00:07:18;17.10;25.50
22827;DHT22;11580;52.562;13.418;2023-06-14T00:09:49;16.90;25.80
22827;DHT22;11580;52.562;13.418;2023-06-14T00:12:16;16.80;25.40
22827;DHT22;11580;52.562;13.418;2023-06-14T00:14:43;16.80;26.10
22827;DHT22;11580;52.562;13.418;2023-06-14T00:17:11;16.80;25.70
22827;DHT22;11580;52.562;13.418;2023-06-14T00:19:38;16.80;26.30
22827;DHT22;11580;52.562;13.418;2023-06-14T00:22:05;16.70;26.30
22827;DHT22;11580;52.562;13.418;2023-06-14T00:24:34;16.70;25.90
22827;DHT22;11580;52.562;13.418;2023-06-14T00:27:01;16.70;26.80
22827;DHT22;11580;52.562;13.418;2023-06-14T00:29:29;16.70;26.00
22827;DHT22;11580;52.562;13.418;2023-06-14T00:31:56;16.60;26.10
22827;DHT22;11580;52.562;13.418;2023-06-14T00:34:26;16.60;26.10
22827;DHT22;11580;52.562;13.418;2023-06-14T00:36:53;16.60;26.20
22827;DHT22;11580;52.562;13.418;2023-06-14T00:39:20;16.60;26.30
22827;DHT22;11580;52.562;13.418;2023-06-14T00:41:49;16.50;26.30
22827;DHT22;11580;52.562;13.418;2023-06-14T00:44:17;16.50;26.70
22827;DHT22;11580;52.562;13.418;2023-06-14T00:46:45;16.50;26.50
22827;DHT22;11580;52.562;13.418;2023-06-14T00:49:14;16.50;26.70
22827;DHT22;11580;52.562;13.418;2023-06-14T00:51:42;16.50;27.50
22827;DHT22;11580;52.562;13.418;2023-06-14T00:54:10;16.40;26.70
22827;DHT22;11580;52.562;13.418;2023-06-14T00:56:37;16.40;26.80
22827;DHT22;11580;52.562;13.418;2023-06-14T00:59:07;16.30;26.70
22827;DHT22;11580;52.562;13.418;2023-06-14T01:01:34;16.30;27.20
22827;DHT22;11580;52.562;13.418;2023-06-14T01:04:03;16.30;26.90
22827;DHT22;11580;52.562;13.418;2023-06-14T01:06:33;16.30;27.20
22827;DHT22;11580;52.562;13.418;2023-06-14T01:09:15;16.20;27.60
22827;DHT22;11580;52.562;13.418;2023-06-14T01:11:56;16.20;28.30
22827;DHT22;11580;52.562;13.418;2023-06-14T01:14:29;16.20;27.90
22827;DHT22;11580;52.562;13.418;2023-06-14T01:16:58;16.20;27.80
22827;DHT22;11580;52.562;13.418;2023-06-14T01:19:26;16.10;27.30
22827;DHT22;11580;52.562;13.418;2023-06-14T01:21:55;16.10;27.60
22827;DHT22;11580;52.562;13.418;2023-06-14T01:24:24;16.10;27.50
22827;DHT22;11580;52.562;13.418;2023-06-14T01:26:59;16.10;27.80
22827;DHT22;11580;52.562;13.418;2023-06-14T01:29:27;16.10;27.90
22827;DHT22;11580;52.562;13.418;2023-06-14T01:31:58;16.00;27.70
22827;DHT22;11580;52.562;13.418;2023-06-14T01:34:30;16.00;27.70
22827;DHT22;11580;52.562;13.418;2023-06-14T01:37:00;16.00;27.70
22827;DHT22;11580;52.562;13.418;2023-06-14T01:39:30;16.00;28.30
22827;DHT22;11580;52.562;13.418;2023-06-14T01:41:59;16.00;28.40
22827;DHT22;11580;52.562;13.418;2023-06-14T01:44:27;15.90;28.00
22827;DHT22;11580;52.562;13.418;2023-06-14T01:46:56;15.90;28.10
22827;DHT22;11580;52.562;13.418;2023-06-14T01:49:24;15.90;28.10
22827;DHT22;11580;52.562;13.418;2023-06-14T01:51:53;15.90;28.10
22827;DHT22;11580;52.562;13.418;2023-06-14T01:54:20;15.90;28.10
22827;DHT22;11580;52.562;13.418;2023-06-14T01:56:48;15.90;28.80
22827;DHT22;11580;52.562;13.418;2023-06-14T01:59:16;15.90;28.60
22827;DHT22;11580;52.562;13.418;2023-06-14T02:01:43;15.80;28.20
22827;DHT22;11580;52.562;13.418;2023-06-14T02:04:12;15.80;28.30
22827;DHT22;11580;52.562;13.418;2023-06-14T02:06:39;15.80;28.40
22827;DHT22;11580;52.562;13.418;2023-06-14T02:09:06;15.80;28.40
22827;DHT22;11580;52.562;13.418;2023-06-14T02:11:33;15.80;28.40
22827;DHT22;11580;52.562;13.418;2023-06-14T02:14:01;15.70;29.00
22827;DHT22;11580;52.562;13.418;2023-06-14T02:16:29;15.70;28.70
22827;DHT22;11580;52.562;13.418;2023-06-14T02:18:56;15.70;29.10
22827;DHT22;11580;52.562;13.418;2023-06-14T02:21:23;15.60;28.60
22827;DHT22;11580;52.562;13.418;2023-06-14T02:23:50;15.60;28.60
22827;DHT22;11580;52.562;13.418;2023-06-14T02:26:17;15.60;28.60
22827;DHT22;11580;52.562;13.418;2023-06-14T02:28:45;15.60;28.70
22827;DHT22;11580;52.562;13.418;2023-06-14T02:31:13;15.60;29.40
22827;DHT22;11580;52.562;13.418;2023-06-14T02:33:41;15.60;29.20
22827;DHT22;11580;52.562;13.418;2023-06-14T02:36:09;15.50;28.90
22827;DHT22;11580;52.562;13.418;2023-06-14T02:38:36;15.50;28.90
22827;DHT22;11580;52.562;13.418;2023-06-14T02:41:03;15.50;29.00
22827;DHT22;11580;52.562;13.418;2023-06-14T02:43:31;15.50;29.10
22827;DHT22;11580;52.562;13.418;2023-06-14T02:45:58;15.50;29.20
22827;DHT22;11580;52.562;13.418;2023-06-14T02:48:27;15.50;29.20
22827;DHT22;11580;52.562;13.418;2023-06-14T02:50:54;15.50;29.70
22827;DHT22;11580;52.562;13.418;2023-06-14T02:53:22;15.50;29.30
22827;DHT22;11580;52.562;13.418;2023-06-14T02:55:49;15.60;29.40
22827;DHT22;11580;52.562;13.418;2023-06-14T02:58:18;15.50;29.40
22827;DHT22;11580;52.562;13.418;2023-06-14T03:00:45;15.50;29.50
22827;DHT22;11580;52.562;13.418;2023-06-14T03:03:13;15.50;29.50
22827;DHT22;11580;52.562;13.418;2023-06-14T03:05:49;15.50;30.10
22827;DHT22;11580;52.562;13.418;2023-06-14T03:08:22;15.50;30.00
22827;DHT22;11580;52.562;13.418;2023-06-14T03:10:53;15.50;29.70
22827;DHT22;11580;52.562;13.418;2023-06-14T03:13:22;15.50;29.70
22827;DHT22;11580;52.562;13.418;2023-06-14T03:15:51;15.60;29.80
22827;DHT22;11580;52.562;13.418;2023-06-14T03:18:20;15.60;29.90
22827;DHT22;11580;52.562;13.418;2023-06-14T03:20:51;15.60;29.90
22827;DHT22;11580;52.562;13.418;2023-06-14T03:23:20;15.70;30.60
22827;DHT22;11580;52.562;13.418;2023-06-14T03:25:47;15.70;30.60
22827;DHT22;11580;52.562;13.418;2023-06-14T03:28:14;15.80;30.90
22827;DHT22;11580;52.562;13.418;2023-06-14T03:30:42;16.00;31.00
22827;DHT22;11580;52.562;13.418;2023-06-14T03:33:09;16.20;30.70
22827;DHT22;11580;52.562;13.418;2023-06-14T03:35:39;16.40;30.90
22827;DHT22;11580;52.562;13.418;2023-06-14T03:38:09;16.50;29.90
22827;DHT22;11580;52.562;13.418;2023-06-14T03:40:36;16.60;30.20
22827;DHT22;11580;52.562;13.418;2023-06-14T03:43:05;16.70;30.20
22827;DHT22;11580;52.562;13.418;2023-06-14T03:45:32;16.90;30.70
22827;DHT22;11580;52.562;13.418;2023-06-14T03:48:00;17.10;31.40
22827;DHT22;11580;52.562;13.418;2023-06-14T03:50:30;17.40;31.80
22827;DHT22;11580;52.562;13.418;2023-06-14T03:52:57;17.90;32.70
22827;DHT22;11580;52.562;13.418;2023-06-14T03:55:28;18.40;32.00
22827;DHT22;11580;52.562;13.418;2023-06-14T03:57:57;18.90;31.10
22827;DHT22;11580;52.562;13.418;2023-06-14T04:00:24;19.40;30.00
22827;DHT22;11580;52.562;13.418;2023-06-14T04:02:52;20.00;30.30
22827;DHT22;11580;52.562;13.418;2023-06-14T04:05:20;20.50;29.90
22827;DHT22;11580;52.562;13.418;2023-06-14T04:07:49;21.00;29.40
22827;DHT22;11580;52.562;13.418;2023-06-14T04:10:16;21.50;28.80
22827;DHT22;11580;52.562;13.418;2023-06-14T04:12:47;21.90;28.10
22827;DHT22;11580;52.562;13.418;2023-06-14T04:15:14;22.30;27.20
22827;DHT22;11580;52.562;13.418;2023-06-14T04:17:41;22.70;27.20
22827;DHT22;11580;52.562;13.418;2023-06-14T04:20:09;23.10;27.30
22827;DHT22;11580;52.562;13.418;2023-06-14T04:22:37;23.40;26.50
22827;DHT22;11580;52.562;13.418;2023-06-14T04:25:05;23.70;26.10
22827;DHT22;11580;52.562;13.418;2023-06-14T04:27:34;24.10;25.90
22827;DHT22;11580;52.562;13.418;2023-06-14T04:30:04;24.40;25.60
22827;DHT22;11580;52.562;13.418;2023-06-14T04:32:37;24.70;24.90
22827;DHT22;11580;52.562;13.418;2023-06-14T04:35:07;24.90;24.90
22827;DHT22;11580;52.562;13.418;2023-06-14T04:37:37;25.20;24.60
22827;DHT22;11580;52.562;13.418;2023-06-14T04:40:10;25.50;24.50
22827;DHT22;11580;52.562;13.418;2023-06-14T04:42:38;25.80;24.20
22827;DHT22;11580;52.562;13.418;2023-06-14T04:45:09;26.10;24.20
22827;DHT22;11580;52.562;13.418;2023-06-14T04:47:38;26.40;23.50
22827;DHT22;11580;52.562;13.418;2023-06-14T04:50:06;26.70;23.70
22827;DHT22;11580;52.562;13.418;2023-06-14T04:52:34;27.10;23.20
22827;DHT22;11580;52.562;13.418;2023-06-14T04:55:04;27.40;22.80
22827;DHT22;11580;52.562;13.418;2023-06-14T04:57:32;27.60;22.10
22827;DHT22;11580;52.562;13.418;2023-06-14T05:00:01;27.90;21.50
22827;DHT22;11580;52.562;13.418;2023-06-14T05:02:33;28.00;21.10
22827;DHT22;11580;52.562;13.418;2023-06-14T05:05:01;28.10;20.60
22827;DHT22;11580;52.562;13.418;2023-06-14T05:07:28;28.20;21.20
22827;DHT22;11580;52.562;13.418;2023-06-14T05:09:56;28.30;20.20
22827;DHT22;11580;52.562;13.418;2023-06-14T05:12:24;28.30;20.10
22827;DHT22;11580;52.562;13.418;2023-06-14T05:14:52;28.20;20.10
22827;DHT22;11580;52.562;13.418;2023-06-14T05:17:21;28.10;19.60
22827;DHT22;11580;52.562;13.418;2023-06-14T05:19:49;27.70;19.30
22827;DHT22;11580;52.562;13.418;2023-06-14T05:22:16;27.30;20.00
22827;DHT22;11580;52.562;13.418;2023-06-14T05:24:44;26.80;19.40
22827;DHT22;11580;52.562;13.418;2023-06-14T05:27:13;26.20;19.60
22827;DHT22;11580;52.562;13.418;2023-06-14T05:29:40;25.70;20.70
22827;DHT22;11580;52.562;13.418;2023-06-14T05:32:08;25.20;20.60
22827;DHT22;11580;52.562;13.418;2023-06-14T05:34:35;24.80;21.10
22827;DHT22;11580;52.562;13.418;2023-06-14T05:37:04;24.40;22.10
22827;DHT22;11580;52.562;13.418;2023-06-14T05:39:31;24.10;21.90
22827;DHT22;11580;52.562;13.418;2023-06-14T05:41:59;23.80;22.00
22827;DHT22;11580;52.562;13.418;2023-06-14T05:44:26;23.60;22.20
22827;DHT22;11580;52.562;13.418;2023-06-14T05:46:53;23.40;22.30
22827;DHT22;11580;52.562;13.418;2023-06-14T05:49:20;23.20;22.30
22827;DHT22;11580;52.562;13.418;2023-06-14T05:51:47;23.10;22.90
22827;DHT22;11580;52.562;13.418;2023-06-14T05:54:16;22.80;22.50
22827;DHT22;11580;52.562;13.418;2023-06-14T05:56:43;22.70;23.40
22827;DHT22;11580;52.562;13.418;2023-06-14T05:59:10;22.50;22.90
22827;DHT22;11580;52.562;13.418;2023-06-14T06:01:37;22.40;23.70
22827;DHT22;11580;52.562;13.418;2023-06-14T06:04:05;22.20;23.30
22827;DHT22;11580;52.562;13.418;2023-06-14T06:06:33;22.10;23.20
22827;DHT22;11580;52.562;13.418;2023-06-14T06:09:01;22.00;23.60
22827;DHT22;11580;52.562;13.418;2023-06-14T06:11:29;21.90;23.70
22827;DHT22;11580;52.562;13.418;2023-06-14T06:13:57;21.90;23.50
22827;DHT22;11580;52.562;13.418;2023-06-14T06:16:24;21.80;24.00
22827;DHT22;11580;52.562;13.418;2023-06-14T06:18:51;21.70;23.60
22827;DHT22;11580;52.562;13.418;2023-06-14T06:21:18;21.60;24.40
22827;DHT22;11580;52.562;13.418;2023-06-14T06:23:46;21.50;23.90
22827;DHT22;11580;52.562;13.418;2023-06-14T06:26:13;21.40;24.10
22827;DHT22;11580;52.562;13.418;2023-06-14T06:28:41;21.40;24.20
22827;DHT22;11580;52.562;13.418;2023-06-14T06:31:08;21.30;24.50
22827;DHT22;11580;52.562;13.418;2023-06-14T06:33:36;21.30;25.10
22827;DHT22;11580;52.562;13.418;2023-06-14T06:36:05;21.30;24.60
22827;DHT22;11580;52.562;13.418;2023-06-14T06:38:32;21.20;24.70
22827;DHT22;11580;52.562;13.418;2023-06-14T06:40:59;21.20;24.80
22827;DHT22;11580;52.562;13.418;2023-06-14T06:43:27;21.20;25.50
22827;DHT22;11580;52.562;13.418;2023-06-14T06:45:58;21.20;25.00
22827;DHT22;11580;52.562;13.418;2023-06-14T06:48:25;21.20;25.20
22827;DHT22;11580;52.562;13.418;2023-06-14T06:50:52;21.20;25.10
22827;DHT22;11580;52.562;13.418;2023-06-14T06:53:19;21.30;25.30
22827;DHT22;11580;52.562;13.418;2023-06-14T06:55:46;21.50;25.40
22827;DHT22;11580;52.562;13.418;2023-06-14T06:58:14;21.40;25.30
22827;DHT22;11580;52.562;13.418;2023-06-14T07:00:41;21.50;25.40
22827;DHT22;11580;52.562;13.418;2023-06-14T07:03:10;21.70;25.50
22827;DHT22;11580;52.562;13.418;2023-06-14T07:05:38;21.80;25.60
22827;DHT22;11580;52.562;13.418;2023-06-14T07:08:05;22.00;25.50
22827;DHT22;11580;52.562;13.418;2023-06-14T07:10:32;22.10;25.40
22827;DHT22;11580;52.562;13.418;2023-06-14T07:13:00;22.30;25.20
22827;DHT22;11580;52.562;13.418;2023-06-14T07:15:27;22.40;25.10
22827;DHT22;11580;52.562;13.418;2023-06-14T07:17:54;22.50;25.00
22827;DHT22;11580;52.562;13.418;2023-06-14T07:20:26;22.60;25.40
22827;DHT22;11580;52.562;13.418;2023-06-14T07:22:53;22.60;24.80
22827;DHT22;11580;52.562;13.418;2023-06-14T07:25:21;22.70;24.90
22827;DHT22;11580;52.562;13.418;2023-06-14T07:27:48;22.70;24.80
22827;DHT22;11580;52.562;13.418;2023-06-14T07:30:15;22.80;24.80
22827;DHT22;11580;52.562;13.418;2023-06-14T07:32:43;22.80;24.60
22827;DHT22;11580;52.562;13.418;2023-06-14T07:35:10;22.90;24.50
22827;DHT22;11580;52.562;13.418;2023-06-14T07:37:38;23.00;24.50
22827;DHT22;11580;52.562;13.418;2023-06-14T07:40:06;23.00;24.60
22827;DHT22;11580;52.562;13.418;2023-06-14T07:42:35;23.10;24.60
22827;DHT22;11580;52.562;13.418;2023-06-14T07:45:03;23.20;24.70
22827;DHT22;11580;52.562;13.418;2023-06-14T07:47:32;23.30;24.70
22827;DHT22;11580;52.562;13.418;2023-06-14T07:49:59;23.50;24.80
22827;DHT22;11580;52.562;13.418;2023-06-14T07:52:26;23.70;24.50
22827;DHT22;11580;52.562;13.418;2023-06-14T07:54:55;23.90;24.40
22827;DHT22;11580;52.562;13.418;2023-06-14T07:57:22;24.10;24.30
22827;DHT22;11580;52.562;13.418;2023-06-14T07:59:49;24.30;24.30
22827;DHT22;11580;52.562;13.418;2023-06-14T08:02:17;24.50;24.10
22827;DHT22;11580;52.562;13.418;2023-06-14T08:04:44;24.60;23.80
22827;DHT22;11580;52.562;13.418;2023-06-14T08:07:12;24.80;23.60
22827;DHT22;11580;52.562;13.418;2023-06-14T08:09:39;24.90;23.40
22827;DHT22;11580;52.562;13.418;2023-06-14T08:12:08;25.00;23.30
22827;DHT22;11580;52.562;13.418;2023-06-14T08:14:36;25.10;23.00
22827;DHT22;11580;52.562;13.418;2023-06-14T08:17:03;25.20;22.90
22827;DHT22;11580;52.562;13.418;2023-06-14T08:19:31;25.30;22.80
22827;DHT22;11580;52.562;13.418;2023-06-14T08:21:58;25.40;23.40
22827;DHT22;11580;52.562;13.418;2023-06-14T08:24:25;25.40;22.60
22827;DHT22;11580;52.562;13.418;2023-06-14T08:26:53;25.50;22.40
22827;DHT22;11580;52.562;13.418;2023-06-14T08:29:23;25.50;22.20
22827;DHT22;11580;52.562;13.418;2023-06-14T08:31:50;25.50;22.00
22827;DHT22;11580;52.562;13.418;2023-06-14T08:34:17;25.40;22.00
22827;DHT22;11580;52.562;13.418;2023-06-14T08:36:44;25.40;21.80
22827;DHT22;11580;52.562;13.418;2023-06-14T08:39:11;25.30;22.50
22827;DHT22;11580;52.562;13.418;2023-06-14T08:41:38;25.30;22.10
22827;DHT22;11580;52.562;13.418;2023-06-14T08:44:06;25.30;22.30
22827;DHT22;11580;52.562;13.418;2023-06-14T08:46:36;25.40;22.10
22827;DHT22;11580;52.562;13.418;2023-06-14T08:49:04;25.50;22.70
22827;DHT22;11580;52.562;13.418;2023-06-14T08:51:35;25.50;22.70
22827;DHT22;11580;52.562;13.418;2023-06-14T08:54:03;25.70;22.00
22827;DHT22;11580;52.562;13.418;2023-06-14T08:56:31;25.80;21.70
22827;DHT22;11580;52.562;13.418;2023-06-14T08:59:00;25.90;21.50
22827;DHT22;11580;52.562;13.418;2023-06-14T09:01:29;26.00;21.40
22827;DHT22;11580;52.562;13.418;2023-06-14T09:04:02;26.10;21.30
22827;DHT22;11580;52.562;13.418;2023-06-14T09:06:31;26.20;20.70
22827;DHT22;11580;52.562;13.418;2023-06-14T09:08:58;26.30;20.80
22827;DHT22;11580;52.562;13.418;2023-06-14T09:11:26;26.40;20.70
22827;DHT22;11580;52.562;13.418;2023-06-14T09:13:53;26.40;20.60
22827;DHT22;11580;52.562;13.418;2023-06-14T09:16:21;26.50;20.50
22827;DHT22;11580;52.562;13.418;2023-06-14T09:18:48;26.50;20.40
22827;DHT22;11580;52.562;13.418;2023-06-14T09:21:17;26.50;20.50
22827;DHT22;11580;52.562;13.418;2023-06-14T09:23:45;26.60;20.40
22827;DHT22;11580;52.562;13.418;2023-06-14T09:26:15;26.70;20.30
22827;DHT22;11580;52.562;13.418;2023-06-14T09:28:46;26.70;20.20
22827;DHT22;11580;52.562;13.418;2023-06-14T09:31:15;26.80;20.70
22827;DHT22;11580;52.562;13.418;2023-06-14T09:33:44;26.90;20.10
22827;DHT22;11580;52.562;13.418;2023-06-14T09:36:16;26.90;19.60
22827;DHT22;11580;52.562;13.418;2023-06-14T09:38:52;27.00;19.50
22827;DHT22;11580;52.562;13.418;2023-06-14T09:41:20;27.00;19.50
22827;DHT22;11580;52.562;13.418;2023-06-14T09:43:47;27.00;19.50
22827;DHT22;11580;52.562;13.418;2023-06-14T09:46:15;27.00;19.50
22827;DHT22;11580;52.562;13.418;2023-06-14T09:48:43;27.10;19.50
22827;DHT22;11580;52.562;13.418;2023-06-14T09:51:10;27.20;19.60
22827;DHT22;11580;52.562;13.418;2023-06-14T09:53:46;27.30;19.60
22827;DHT22;11580;52.562;13.418;2023-06-14T09:56:16;27.40;19.70
22827;DHT22;11580;52.562;13.418;2023-06-14T09:58:50;27.50;19.70
22827;DHT22;11580;52.562;13.418;2023-06-14T10:01:23;27.70;19.20
22827;DHT22;11580;52.562;13.418;2023-06-14T10:03:55;27.70;19.00
22827;DHT22;11580;52.562;13.418;2023-06-14T10:06:29;27.70;18.80
22827;DHT22;11580;52.562;13.418;2023-06-14T10:08:59;27.70;18.60
22827;DHT22;11580;52.562;13.418;2023-06-14T10:11:27;27.70;18.40
22827;DHT22;11580;52.562;13.418;2023-06-14T10:13:55;27.60;18.60
22827;DHT22;11580;52.562;13.418;2023-06-14T10:16:28;27.50;18.70
22827;DHT22;11580;52.562;13.418;2023-06-14T10:19:03;27.50;18.90
22827;DHT22;11580;52.562;13.418;2023-06-14T10:21:43;27.50;19.30
22827;DHT22;11580;52.562;13.418;2023-06-14T10:24:20;27.50;18.60
22827;DHT22;11580;52.562;13.418;2023-06-14T10:26:57;27.60;18.80
22827;DHT22;11580;52.562;13.418;2023-06-14T10:29:25;27.60;18.60
22827;DHT22;11580;52.562;13.418;2023-06-14T10:31:58;27.70;18.70
22827;DHT22;11580;52.562;13.418;2023-06-14T10:34:27;27.80;18.60
22827;DHT22;11580;52.562;13.418;2023-06-14T10:37:01;27.80;18.60
22827;DHT22;11580;52.562;13.418;2023-06-14T10:39:31;27.90;18.30
22827;DHT22;11580;52.562;13.418;2023-06-14T10:42:01;28.00;18.30
22827;DHT22;11580;52.562;13.418;2023-06-14T10:44:43;28.00;18.70
22827;DHT22;11580;52.562;13.418;2023-06-14T10:47:26;28.10;17.90
22827;DHT22;11580;52.562;13.418;2023-06-14T10:49:55;28.00;17.90
22827;DHT22;11580;52.562;13.418;2023-06-14T10:52:28;28.10;18.10
22827;DHT22;11580;52.562;13.418;2023-06-14T10:55:06;28.00;17.20
22827;DHT22;11580;52.562;13.418;2023-06-14T10:57:39;28.00;17.30
22827;DHT22;11580;52.562;13.418;2023-06-14T11:00:09;28.00;17.70
22827;DHT22;11580;52.562;13.418;2023-06-14T11:03:10;27.90;17.60
22827;DHT22;11580;52.562;13.418;2023-06-14T11:05:56;27.90;17.50
22827;DHT22;11580;52.562;13.418;2023-06-14T11:12:10;27.90;17.10
22827;DHT22;11580;52.562;13.418;2023-06-14T11:14:38;27.80;17.50
22827;DHT22;11580;52.562;13.418;2023-06-14T11:17:06;27.70;17.40
22827;DHT22;11580;52.562;13.418;2023-06-14T11:19:33;27.70;17.50
22827;DHT22;11580;52.562;13.418;2023-06-14T11:22:01;27.70;17.90
22827;DHT22;11580;52.562;13.418;2023-06-14T11:24:29;27.70;17.20
22827;DHT22;11580;52.562;13.418;2023-06-14T11:26:56;27.70;17.40
22827;DHT22;11580;52.562;13.418;2023-06-14T11:29:25;27.80;17.70
22827;DHT22;11580;52.562;13.418;2023-06-14T11:31:52;27.80;17.70
22827;DHT22;11580;52.562;13.418;2023-06-14T11:34:19;27.90;17.20
22827;DHT22;11580;52.562;13.418;2023-06-14T11:36:47;27.90;16.90
22827;DHT22;11580;52.562;13.418;2023-06-14T11:39:14;28.00;16.80
22827;DHT22;11580;52.562;13.418;2023-06-14T11:41:43;28.10;16.80
22827;DHT22;11580;52.562;13.418;2023-06-14T11:44:12;28.20;16.90
22827;DHT22;11580;52.562;13.418;2023-06-14T11:46:41;28.30;16.80
22827;DHT22;11580;52.562;13.418;2023-06-14T11:49:08;28.40;16.40
22827;DHT22;11580;52.562;13.418;2023-06-14T11:51:35;28.60;16.20
22827;DHT22;11580;52.562;13.418;2023-06-14T11:54:05;28.80;16.60
22827;DHT22;11580;52.562;13.418;2023-06-14T11:56:33;28.90;15.40
22827;DHT22;11580;52.562;13.418;2023-06-14T11:59:03;28.90;15.20
22827;DHT22;11580;52.562;13.418;2023-06-14T12:01:31;28.90;14.80
22827;DHT22;11580;52.562;13.418;2023-06-14T12:04:00;28.90;14.50
22827;DHT22;11580;52.562;13.418;2023-06-14T12:06:30;28.90;14.90
22827;DHT22;11580;52.562;13.418;2023-06-14T12:09:05;28.80;14.70
22827;DHT22;11580;52.562;13.418;2023-06-14T12:11:38;28.60;14.60
22827;DHT22;11580;52.562;13.418;2023-06-14T12:14:06;28.50;14.60
22827;DHT22;11580;52.562;13.418;2023-06-14T12:16:37;28.30;14.60
22827;DHT22;11580;52.562;13.418;2023-06-14T12:19:12;28.20;15.00
22827;DHT22;11580;52.562;13.418;2023-06-14T12:21:41;28.00;14.40
22827;DHT22;11580;52.562;13.418;2023-06-14T12:24:09;27.90;14.70
22827;DHT22;11580;52.562;13.418;2023-06-14T12:26:38;27.80;14.60
22827;DHT22;11580;52.562;13.418;2023-06-14T12:29:06;27.60;14.40
22827;DHT22;11580;52.562;13.418;2023-06-14T12:31:34;27.60;14.50
22827;DHT22;11580;52.562;13.418;2023-06-14T12:34:01;27.40;14.50
22827;DHT22;11580;52.562;13.418;2023-06-14T12:36:30;27.40;14.60
22827;DHT22;11580;52.562;13.418;2023-06-14T12:38:57;27.30;14.60
22827;DHT22;11580;52.562;13.418;2023-06-14T12:41:25;27.20;14.70
22827;DHT22;11580;52.562;13.418;2023-06-14T12:43:52;27.20;14.70
22827;DHT22;11580;52.562;13.418;2023-06-14T12:46:20;27.30;14.90
22827;DHT22;11580;52.562;13.418;2023-06-14T12:48:47;27.30;14.90
22827;DHT22;11580;52.562;13.418;2023-06-14T12:51:14;27.40;14.80
22827;DHT22;11580;52.562;13.418;2023-06-14T12:53:43;27.50;15.20
22827;DHT22;11580;52.562;13.418;2023-06-14T12:56:10;27.60;14.40
22827;DHT22;11580;52.562;13.418;2023-06-14T12:58:38;27.60;14.20
22827;DHT22;11580;52.562;13.418;2023-06-14T13:01:05;27.70;14.40
22827;DHT22;11580;52.562;13.418;2023-06-14T13:03:32;27.70;14.30
22827;DHT22;11580;52.562;13.418;2023-06-14T13:06:00;27.80;14.40
22827;DHT22;11580;52.562;13.418;2023-06-14T13:08:27;27.80;14.50
22827;DHT22;11580;52.562;13.418;2023-06-14T13:10:56;27.90;14.60
22827;DHT22;11580;52.562;13.418;2023-06-14T13:13:23;28.00;14.50
22827;DHT22;11580;52.562;13.418;2023-06-14T13:15:50;28.00;14.40
22827;DHT22;11580;52.562;13.418;2023-06-14T13:18:17;28.10;14.00
22827;DHT22;11580;52.562;13.418;2023-06-14T13:20:46;28.10;13.60
22827;DHT22;11580;52.562;13.418;2023-06-14T13:23:14;28.20;13.70
22827;DHT22;11580;52.562;13.418;2023-06-14T13:25:42;28.20;13.80
22827;DHT22;11580;52.562;13.418;2023-06-14T13:28:10;28.20;13.60
22827;DHT22;11580;52.562;13.418;2023-06-14T13:30:38;28.30;13.30
22827;DHT22;11580;52.562;13.418;2023-06-14T13:33:05;28.40;13.40
22827;DHT22;11580;52.562;13.418;2023-06-14T13:35:32;28.40;13.00
22827;DHT22;11580;52.562;13.418;2023-06-14T13:38:00;28.40;12.90
22827;DHT22;11580;52.562;13.418;2023-06-14T13:40:27;28.40;12.70
22827;DHT22;11580;52.562;13.418;2023-06-14T13:42:54;28.40;13.00
22827;DHT22;11580;52.562;13.418;2023-06-14T13:45:23;28.40;12.40
22827;DHT22;11580;52.562;13.418;2023-06-14T13:47:50;28.40;12.90
22827;DHT22;11580;52.562;13.418;2023-06-14T13:50:17;28.40;12.70
22827;DHT22;11580;52.562;13.418;2023-06-14T13:52:45;28.50;12.50
22827;DHT22;11580;52.562;13.418;2023-06-14T13:55:12;28.50;12.70
22827;DHT22;11580;52.562;13.418;2023-06-14T13:57:40;28.60;12.60
22827;DHT22;11580;52.562;13.418;2023-06-14T14:00:08;28.70;12.40
22827;DHT22;11580;52.562;13.418;2023-06-14T14:02:42;28.70;11.90
22827;DHT22;11580;52.562;13.418;2023-06-14T14:05:09;28.80;11.60
22827;DHT22;11580;52.562;13.418;2023-06-14T14:07:36;28.90;11.90
22827;DHT22;11580;52.562;13.418;2023-06-14T14:10:06;28.90;11.60
22827;DHT22;11580;52.562;13.418;2023-06-14T14:12:34;29.00;11.50
22827;DHT22;11580;52.562;13.418;2023-06-14T14:15:01;29.00;12.00
22827;DHT22;11580;52.562;13.418;2023-06-14T14:17:29;29.00;12.10
22827;DHT22;11580;52.562;13.418;2023-06-14T14:19:58;29.00;11.90
22827;DHT22;11580;52.562;13.418;2023-06-14T14:22:25;28.90;12.30
22827;DHT22;11580;52.562;13.418;2023-06-14T14:24:52;28.90;12.60
22827;DHT22;11580;52.562;13.418;2023-06-14T14:27:19;28.80;12.70
22827;DHT22;11580;52.562;13.418;2023-06-14T14:29:46;28.70;12.80
22827;DHT22;11580;52.562;13.418;2023-06-14T14:32:13;28.60;13.50
22827;DHT22;11580;52.562;13.418;2023-06-14T14:34:41;28.50;12.90
22827;DHT22;11580;52.562;13.418;2023-06-14T14:37:10;28.40;12.90
22827;DHT22;11580;52.562;13.418;2023-06-14T14:39:38;28.30;13.10
22827;DHT22;11580;52.562;13.418;2023-06-14T14:42:06;28.20;13.20
22827;DHT22;11580;52.562;13.418;2023-06-14T14:44:34;28.00;13.30
22827;DHT22;11580;52.562;13.418;2023-06-14T14:47:01;27.90;13.30
22827;DHT22;11580;52.562;13.418;2023-06-14T14:49:29;27.80;13.40
22827;DHT22;11580;52.562;13.418;2023-06-14T14:51:57;27.60;13.50
22827;DHT22;11580;52.562;13.418;2023-06-14T14:54:26;27.50;13.60
22827;DHT22;11580;52.562;13.418;2023-06-14T14:56:54;27.40;13.70
22827;DHT22;11580;52.562;13.418;2023-06-14T14:59:22;27.30;13.80
22827;DHT22;11580;52.562;13.418;2023-06-14T15:01:49;27.10;13.80
22827;DHT22;11580;52.562;13.418;2023-06-14T15:04:16;27.00;13.90
22827;DHT22;11580;52.562;13.418;2023-06-14T15:06:43;26.90;14.00
22827;DHT22;11580;52.562;13.418;2023-06-14T15:09:10;26.90;14.70
22827;DHT22;11580;52.562;13.418;2023-06-14T15:11:39;26.80;14.10
22827;DHT22;11580;52.562;13.418;2023-06-14T15:14:06;26.70;14.20
22827;DHT22;11580;52.562;13.418;2023-06-14T15:16:33;26.60;14.30
22827;DHT22;11580;52.562;13.418;2023-06-14T15:19:00;26.50;14.40
22827;DHT22;11580;52.562;13.418;2023-06-14T15:21:28;26.50;14.40
22827;DHT22;11580;52.562;13.418;2023-06-14T15:23:55;26.50;14.50
22827;DHT22;11580;52.562;13.418;2023-06-14T15:26:22;26.50;14.50
22827;DHT22;11580;52.562;13.418;2023-06-14T15:28:51;26.40;14.50